sensor_id;sensor_type;location;lat;lon;timestamp;temperature;humidity
25512;DHT22;13414;44.534;18.700;2022-08-04T00:00:59;18.50;99.90
25512;DHT22;13414;44.534;18.700;2022-08-04T00:03:32;18.50;99.90
25512;DHT22;13414;44.534;18.700;2022-08-04T00:06:15;18.50;99.90
25512;DHT22;13414;44.534;18.700;2022-08-04T00:08:47;18.50;99.90
25512;DHT22;13414;44.534;18.700;2022-08-04T00:11:18;18.40;99.90
25512;DHT22;13414;44.534;18.700;2022-08-04T00:13:51;18.40;99.90
25512;DHT22;13414;44.534;18.700;2022-08-04T00:16:22;18.40;99.90
25512;DHT22;13414;44.534;18.700;2022-08-04T00:18:53;18.30;99.90
25512;DHT22;13414;44.534;18.700;2022-08-04T00:21:24;18.30;99.90
25512;DHT22;13414;44.534;18.700;2022-08-04T00:23:54;18.20;99.90
25512;DHT22;13414;44.534;18.700;2022-08-04T00:26:21;18.20;99.90
25512;DHT22;13414;44.534;18.700;2022-08-04T00:28:49;18.20;99.90
25512;DHT22;13414;44.534;18.700;2022-08-04T00:31:17;18.10;99.90
25512;DHT22;13414;44.534;18.700;2022-08-04T00:33:45;18.10;99.90
25512;DHT22;13414;44.534;18.700;2022-08-04T00:36:12;18.00;99.90
25512;DHT22;13414;44.534;18.700;2022-08-04T00:38:42;17.90;99.90
25512;DHT22;13414;44.534;18.700;2022-08-04T00:41:19;17.90;99.90
25512;DHT22;13414;44.534;18.700;2022-08-04T00:44:04;17.90;99.90
25512;DHT22;13414;44.534;18.700;2022-08-04T00:46:50;17.80;99.90
25512;DHT22;13414;44.534;18.700;2022-08-04T00:52:28;17.80;99.90
25512;DHT22;13414;44.534;18.700;2022-08-04T00:58:19;17.80;99.90
25512;DHT22;13414;44.534;18.700;2022-08-04T01:00:53;17.70;99.90
25512;DHT22;13414;44.534;18.700;2022-08-04T01:03:37;17.70;99.90
25512;DHT22;13414;44.534;18.700;2022-08-04T01:06:15;17.70;99.90
25512;DHT22;13414;44.534;18.700;2022-08-04T01:09:03;17.70;99.90
25512;DHT22;13414;44.534;18.700;2022-08-04T01:11:45;17.70;99.90
25512;DHT22;13414;44.534;18.700;2022-08-04T01:14:41;17.70;99.90
25512;DHT22;13414;44.534;18.700;2022-08-04T01:17:19;17.60;99.90
25512;DHT22;13414;44.534;18.700;2022-08-04T01:20:00;17.50;99.90
25512;DHT22;13414;44.534;18.700;2022-08-04T01:26:00;17.30;99.90
25512;DHT22;13414;44.534;18.700;2022-08-04T01:28:42;17.30;99.90
25512;DHT22;13414;44.534;18.700;2022-08-04T01:31:18;17.30;99.90
25512;DHT22;13414;44.534;18.700;2022-08-04T01:33:50;17.30;99.90
25512;DHT22;13414;44.534;18.700;2022-08-04T01:36:20;17.30;99.90
25512;DHT22;13414;44.534;18.700;2022-08-04T01:38:52;17.30;99.90
25512;DHT22;13414;44.534;18.700;2022-08-04T01:41:20;17.30;99.90
25512;DHT22;13414;44.534;18.700;2022-08-04T01:43:49;17.30;99.90
25512;DHT22;13414;44.534;18.700;2022-08-04T01:46:22;17.30;99.90
25512;DHT22;13414;44.534;18.700;2022-08-04T01:48:53;17.20;99.90
25512;DHT22;13414;44.534;18.700;2022-08-04T01:51:21;17.20;99.90
25512;DHT22;13414;44.534;18.700;2022-08-04T01:53:50;17.10;99.90
25512;DHT22;13414;44.534;18.700;2022-08-04T01:56:18;17.10;99.90
25512;DHT22;13414;44.534;18.700;2022-08-04T01:58:46;17.00;99.90
25512;DHT22;13414;44.534;18.700;2022-08-04T02:01:14;17.00;99.90
25512;DHT22;13414;44.534;18.700;2022-08-04T02:03:44;16.90;99.90
25512;DHT22;13414;44.534;18.700;2022-08-04T02:06:21;16.90;99.90
25512;DHT22;13414;44.534;18.700;2022-08-04T02:09:03;17.00;99.90
25512;DHT22;13414;44.534;18.700;2022-08-04T02:11:33;17.00;99.90
25512;DHT22;13414;44.534;18.700;2022-08-04T02:14:05;17.00;99.90
25512;DHT22;13414;44.534;18.700;2022-08-04T02:16:44;16.90;99.90
25512;DHT22;13414;44.534;18.700;2022-08-04T02:19:31;16.90;99.90
25512;DHT22;13414;44.534;18.700;2022-08-04T02:22:01;16.90;99.90
25512;DHT22;13414;44.534;18.700;2022-08-04T02:24:30;16.90;99.90
25512;DHT22;13414;44.534;18.700;2022-08-04T02:27:00;16.90;99.90
25512;DHT22;13414;44.534;18.700;2022-08-04T02:29:34;16.80;99.90
25512;DHT22;13414;44.534;18.700;2022-08-04T02:32:07;16.80;99.90
25512;DHT22;13414;44.534;18.700;2022-08-04T02:34:42;16.80;99.90
25512;DHT22;13414;44.534;18.700;2022-08-04T02:37:12;16.80;99.90
25512;DHT22;13414;44.534;18.700;2022-08-04T02:39:41;16.70;99.90
25512;DHT22;13414;44.534;18.700;2022-08-04T02:42:11;16.70;99.90
25512;DHT22;13414;44.534;18.700;2022-08-04T02:44:39;16.70;99.90
25512;DHT22;13414;44.534;18.700;2022-08-04T02:47:09;16.70;99.90
25512;DHT22;13414;44.534;18.700;2022-08-04T02:49:39;16.60;99.90
25512;DHT22;13414;44.534;18.700;2022-08-04T02:52:09;16.60;99.90
25512;DHT22;13414;44.534;18.700;2022-08-04T02:54:39;16.60;99.90
25512;DHT22;13414;44.534;18.700;2022-08-04T02:57:08;16.60;99.90
25512;DHT22;13414;44.534;18.700;2022-08-04T02:59:47;16.60;99.90
25512;DHT22;13414;44.534;18.700;2022-08-04T03:02:26;16.50;99.90
25512;DHT22;13414;44.534;18.700;2022-08-04T03:04:59;16.60;99.90
25512;DHT22;13414;44.534;18.700;2022-08-04T03:07:54;16.50;99.90
25512;DHT22;13414;44.534;18.700;2022-08-04T03:10:55;16.50;99.90
25512;DHT22;13414;44.534;18.700;2022-08-04T03:13:49;16.50;99.90
25512;DHT22;13414;44.534;18.700;2022-08-04T03:16:41;16.40;99.90
25512;DHT22;13414;44.534;18.700;2022-08-04T03:19:35;16.40;99.90
25512;DHT22;13414;44.534;18.700;2022-08-04T03:22:22;16.40;99.90
25512;DHT22;13414;44.534;18.700;2022-08-04T03:28:23;16.30;99.90
25512;DHT22;13414;44.534;18.700;2022-08-04T03:34:02;16.30;99.90
25512;DHT22;13414;44.534;18.700;2022-08-04T03:37:02;16.30;99.90
25512;DHT22;13414;44.534;18.700;2022-08-04T03:52:05;16.30;99.90
25512;DHT22;13414;44.534;18.700;2022-08-04T03:58:25;16.40;99.90
25512;DHT22;13414;44.534;18.700;2022-08-04T04:01:09;16.40;99.90
25512;DHT22;13414;44.534;18.700;2022-08-04T04:04:02;16.50;99.90
25512;DHT22;13414;44.534;18.700;2022-08-04T04:06:52;16.80;99.90
25512;DHT22;13414;44.534;18.700;2022-08-04T04:10:01;17.30;99.90
25512;DHT22;13414;44.534;18.700;2022-08-04T04:12:51;17.60;99.90
25512;DHT22;13414;44.534;18.700;2022-08-04T04:16:02;18.20;99.90
25512;DHT22;13414;44.534;18.700;2022-08-04T04:18:56;18.70;99.90
25512;DHT22;13414;44.534;18.700;2022-08-04T04:21:38;19.30;99.90
25512;DHT22;13414;44.534;18.700;2022-08-04T04:24:32;19.80;99.90
25512;DHT22;13414;44.534;18.700;2022-08-04T04:27:14;20.30;99.90
25512;DHT22;13414;44.534;18.700;2022-08-04T04:32:58;21.10;99.90
25512;DHT22;13414;44.534;18.700;2022-08-04T04:35:43;21.20;99.90
25512;DHT22;13414;44.534;18.700;2022-08-04T04:38:41;21.20;99.90
25512;DHT22;13414;44.534;18.700;2022-08-04T04:41:25;21.60;99.90
25512;DHT22;13414;44.534;18.700;2022-08-04T04:47:10;23.10;99.90
25512;DHT22;13414;44.534;18.700;2022-08-04T04:49:47;23.20;99.90
25512;DHT22;13414;44.534;18.700;2022-08-04T04:52:23;22.20;99.90
25512;DHT22;13414;44.534;18.700;2022-08-04T04:54:57;21.60;99.90
25512;DHT22;13414;44.534;18.700;2022-08-04T04:57:30;21.20;99.90
25512;DHT22;13414;44.534;18.700;2022-08-04T05:00:03;21.10;99.90
25512;DHT22;13414;44.534;18.700;2022-08-04T05:02:50;20.80;99.90
25512;DHT22;13414;44.534;18.700;2022-08-04T05:05:51;20.60;99.90
25512;DHT22;13414;44.534;18.700;2022-08-04T05:08:48;20.90;99.90
25512;DHT22;13414;44.534;18.700;2022-08-04T05:11:45;20.90;99.90
25512;DHT22;13414;44.534;18.700;2022-08-04T05:14:24;20.90;99.90
25512;DHT22;13414;44.534;18.700;2022-08-04T05:16:57;21.10;99.90
25512;DHT22;13414;44.534;18.700;2022-08-04T05:19:33;21.20;99.90
25512;DHT22;13414;44.534;18.700;2022-08-04T05:22:12;21.00;99.90
25512;DHT22;13414;44.534;18.700;2022-08-04T05:24:45;21.10;99.90
25512;DHT22;13414;44.534;18.700;2022-08-04T05:27:19;21.80;99.90
25512;DHT22;13414;44.534;18.700;2022-08-04T05:29:51;22.70;99.90
25512;DHT22;13414;44.534;18.700;2022-08-04T05:32:23;23.80;99.90
25512;DHT22;13414;44.534;18.700;2022-08-04T05:34:56;24.20;99.90
25512;DHT22;13414;44.534;18.700;2022-08-04T05:37:27;24.70;99.90
25512;DHT22;13414;44.534;18.700;2022-08-04T05:39:57;25.00;99.90
25512;DHT22;13414;44.534;18.700;2022-08-04T05:42:28;24.70;99.90
25512;DHT22;13414;44.534;18.700;2022-08-04T05:44:57;24.60;99.90
25512;DHT22;13414;44.534;18.700;2022-08-04T05:47:27;24.30;99.90
25512;DHT22;13414;44.534;18.700;2022-08-04T05:49:55;24.20;99.90
25512;DHT22;13414;44.534;18.700;2022-08-04T05:52:23;24.30;99.90
25512;DHT22;13414;44.534;18.700;2022-08-04T05:54:53;24.50;99.90
25512;DHT22;13414;44.534;18.700;2022-08-04T05:57:22;24.90;99.90
25512;DHT22;13414;44.534;18.700;2022-08-04T05:59:51;25.10;99.90
25512;DHT22;13414;44.534;18.700;2022-08-04T06:02:22;25.20;99.90
25512;DHT22;13414;44.534;18.700;2022-08-04T06:04:51;25.40;99.90
25512;DHT22;13414;44.534;18.700;2022-08-04T06:07:19;25.60;99.90
25512;DHT22;13414;44.534;18.700;2022-08-04T06:09:46;25.70;99.90
25512;DHT22;13414;44.534;18.700;2022-08-04T06:12:18;25.70;99.90
25512;DHT22;13414;44.534;18.700;2022-08-04T06:14:49;25.90;99.90
25512;DHT22;13414;44.534;18.700;2022-08-04T06:17:22;26.00;99.90
25512;DHT22;13414;44.534;18.700;2022-08-04T06:19:51;26.00;99.90
25512;DHT22;13414;44.534;18.700;2022-08-04T06:22:21;26.20;99.90
25512;DHT22;13414;44.534;18.700;2022-08-04T06:24:50;26.40;99.90
25512;DHT22;13414;44.534;18.700;2022-08-04T06:27:21;26.50;99.90
25512;DHT22;13414;44.534;18.700;2022-08-04T06:29:50;26.70;99.90
25512;DHT22;13414;44.534;18.700;2022-08-04T06:32:19;26.30;99.90
25512;DHT22;13414;44.534;18.700;2022-08-04T06:34:54;26.30;99.90
25512;DHT22;13414;44.534;18.700;2022-08-04T06:37:23;26.20;99.90
25512;DHT22;13414;44.534;18.700;2022-08-04T06:39:51;26.30;99.90
25512;DHT22;13414;44.534;18.700;2022-08-04T06:42:23;26.70;99.90
25512;DHT22;13414;44.534;18.700;2022-08-04T06:44:56;26.60;99.90
25512;DHT22;13414;44.534;18.700;2022-08-04T06:47:24;26.50;99.90
25512;DHT22;13414;44.534;18.700;2022-08-04T06:49:54;26.80;99.90
25512;DHT22;13414;44.534;18.700;2022-08-04T06:52:21;27.10;99.90
25512;DHT22;13414;44.534;18.700;2022-08-04T06:54:51;27.50;99.90
25512;DHT22;13414;44.534;18.700;2022-08-04T06:57:22;27.60;99.90
25512;DHT22;13414;44.534;18.700;2022-08-04T06:59:52;27.70;99.90
25512;DHT22;13414;44.534;18.700;2022-08-04T07:02:25;27.80;99.90
25512;DHT22;13414;44.534;18.700;2022-08-04T07:04:53;27.90;99.90
25512;DHT22;13414;44.534;18.700;2022-08-04T07:07:22;27.90;99.90
25512;DHT22;13414;44.534;18.700;2022-08-04T07:09:50;27.90;99.90
25512;DHT22;13414;44.534;18.700;2022-08-04T07:12:18;27.90;99.90
25512;DHT22;13414;44.534;18.700;2022-08-04T07:14:49;28.10;99.90
25512;DHT22;13414;44.534;18.700;2022-08-04T07:17:20;28.20;99.90
25512;DHT22;13414;44.534;18.700;2022-08-04T07:19:48;28.30;99.90
25512;DHT22;13414;44.534;18.700;2022-08-04T07:22:15;28.50;99.90
25512;DHT22;13414;44.534;18.700;2022-08-04T07:24:43;28.60;99.90
25512;DHT22;13414;44.534;18.700;2022-08-04T07:27:11;28.80;99.90
25512;DHT22;13414;44.534;18.700;2022-08-04T07:29:39;29.10;99.90
25512;DHT22;13414;44.534;18.700;2022-08-04T07:32:09;29.10;99.90
25512;DHT22;13414;44.534;18.700;2022-08-04T07:34:38;29.10;99.90
25512;DHT22;13414;44.534;18.700;2022-08-04T07:37:06;29.10;99.90
25512;DHT22;13414;44.534;18.700;2022-08-04T07:39:34;29.20;99.50
25512;DHT22;13414;44.534;18.700;2022-08-04T07:42:03;29.50;98.40
25512;DHT22;13414;44.534;18.700;2022-08-04T07:44:32;29.40;97.80
25512;DHT22;13414;44.534;18.700;2022-08-04T07:47:00;29.40;98.10
25512;DHT22;13414;44.534;18.700;2022-08-04T07:49:29;29.60;97.90
25512;DHT22;13414;44.534;18.700;2022-08-04T07:51:56;29.60;96.20
25512;DHT22;13414;44.534;18.700;2022-08-04T07:54:24;29.90;96.30
25512;DHT22;13414;44.534;18.700;2022-08-04T07:56:52;29.90;95.30
25512;DHT22;13414;44.534;18.700;2022-08-04T07:59:20;29.90;95.20
25512;DHT22;13414;44.534;18.700;2022-08-04T08:01:48;29.80;95.40
25512;DHT22;13414;44.534;18.700;2022-08-04T08:04:15;29.90;95.30
25512;DHT22;13414;44.534;18.700;2022-08-04T08:06:45;29.70;95.50
25512;DHT22;13414;44.534;18.700;2022-08-04T08:09:14;30.00;95.50
25512;DHT22;13414;44.534;18.700;2022-08-04T08:11:42;30.20;95.50
25512;DHT22;13414;44.534;18.700;2022-08-04T08:14:09;30.20;94.40
25512;DHT22;13414;44.534;18.700;2022-08-04T08:16:37;30.50;94.80
25512;DHT22;13414;44.534;18.700;2022-08-04T08:19:05;30.60;93.30
25512;DHT22;13414;44.534;18.700;2022-08-04T08:21:33;30.60;93.10
25512;DHT22;13414;44.534;18.700;2022-08-04T08:24:04;30.60;92.30
25512;DHT22;13414;44.534;18.700;2022-08-04T08:26:31;30.40;91.90
25512;DHT22;13414;44.534;18.700;2022-08-04T08:28:59;30.30;91.50
25512;DHT22;13414;44.534;18.700;2022-08-04T08:31:28;30.30;91.60
25512;DHT22;13414;44.534;18.700;2022-08-04T08:33:56;30.60;90.90
25512;DHT22;13414;44.534;18.700;2022-08-04T08:36:27;30.80;89.30
25512;DHT22;13414;44.534;18.700;2022-08-04T08:39:02;30.80;90.20
25512;DHT22;13414;44.534;18.700;2022-08-04T08:41:58;30.70;86.10
25512;DHT22;13414;44.534;18.700;2022-08-04T08:44:55;30.90;80.10
25512;DHT22;13414;44.534;18.700;2022-08-04T08:47:38;31.20;79.80
25512;DHT22;13414;44.534;18.700;2022-08-04T08:50:30;31.60;79.30
25512;DHT22;13414;44.534;18.700;2022-08-04T08:53:20;31.80;77.10
25512;DHT22;13414;44.534;18.700;2022-08-04T08:56:05;32.00;76.90
25512;DHT22;13414;44.534;18.700;2022-08-04T08:58:43;32.20;74.00
25512;DHT22;13414;44.534;18.700;2022-08-04T09:01:24;32.60;72.50
25512;DHT22;13414;44.534;18.700;2022-08-04T09:04:31;32.90;69.60
25512;DHT22;13414;44.534;18.700;2022-08-04T09:07:32;33.10;68.30
25512;DHT22;13414;44.534;18.700;2022-08-04T09:10:08;33.20;66.80
25512;DHT22;13414;44.534;18.700;2022-08-04T09:12:45;33.30;66.30
25512;DHT22;13414;44.534;18.700;2022-08-04T09:15:23;33.30;64.10
25512;DHT22;13414;44.534;18.700;2022-08-04T09:17:58;33.50;65.50
25512;DHT22;13414;44.534;18.700;2022-08-04T09:20:30;33.90;64.50
25512;DHT22;13414;44.534;18.700;2022-08-04T09:23:07;34.00;64.10
25512;DHT22;13414;44.534;18.700;2022-08-04T09:25:45;34.10;59.00
25512;DHT22;13414;44.534;18.700;2022-08-04T09:28:22;34.00;59.50
25512;DHT22;13414;44.534;18.700;2022-08-04T09:30:55;33.80;58.30
25512;DHT22;13414;44.534;18.700;2022-08-04T09:33:34;33.90;58.40
25512;DHT22;13414;44.534;18.700;2022-08-04T09:36:12;33.80;58.20
25512;DHT22;13414;44.534;18.700;2022-08-04T09:38:45;33.90;58.10
25512;DHT22;13414;44.534;18.700;2022-08-04T09:41:23;34.00;57.10
25512;DHT22;13414;44.534;18.700;2022-08-04T09:44:05;34.20;56.00
25512;DHT22;13414;44.534;18.700;2022-08-04T09:46:38;34.10;55.40
25512;DHT22;13414;44.534;18.700;2022-08-04T09:49:11;33.90;54.90
25512;DHT22;13414;44.534;18.700;2022-08-04T09:51:48;34.00;54.10
25512;DHT22;13414;44.534;18.700;2022-08-04T09:54:22;33.80;53.70
25512;DHT22;13414;44.534;18.700;2022-08-04T09:56:56;34.10;53.70
25512;DHT22;13414;44.534;18.700;2022-08-04T09:59:35;34.20;55.00
25512;DHT22;13414;44.534;18.700;2022-08-04T10:02:09;33.90;55.80
25512;DHT22;13414;44.534;18.700;2022-08-04T10:04:41;33.50;58.70
25512;DHT22;13414;44.534;18.700;2022-08-04T10:07:43;33.50;58.60
25512;DHT22;13414;44.534;18.700;2022-08-04T10:10:19;33.70;58.90
25512;DHT22;13414;44.534;18.700;2022-08-04T10:13:17;33.60;56.30
25512;DHT22;13414;44.534;18.700;2022-08-04T10:16:00;33.30;58.00
25512;DHT22;13414;44.534;18.700;2022-08-04T10:18:49;33.40;57.70
25512;DHT22;13414;44.534;18.700;2022-08-04T10:21:23;33.10;56.40
25512;DHT22;13414;44.534;18.700;2022-08-04T10:24:06;33.20;57.10
25512;DHT22;13414;44.534;18.700;2022-08-04T10:26:41;32.80;56.80
25512;DHT22;13414;44.534;18.700;2022-08-04T10:29:14;33.00;56.70
25512;DHT22;13414;44.534;18.700;2022-08-04T10:31:54;33.00;56.70
25512;DHT22;13414;44.534;18.700;2022-08-04T10:34:26;33.00;56.80
25512;DHT22;13414;44.534;18.700;2022-08-04T10:36:58;32.90;56.60
25512;DHT22;13414;44.534;18.700;2022-08-04T10:39:35;33.20;56.30
25512;DHT22;13414;44.534;18.700;2022-08-04T10:42:13;33.10;56.00
25512;DHT22;13414;44.534;18.700;2022-08-04T10:44:59;33.20;55.40
25512;DHT22;13414;44.534;18.700;2022-08-04T10:47:37;33.50;55.70
25512;DHT22;13414;44.534;18.700;2022-08-04T10:50:10;33.50;55.40
25512;DHT22;13414;44.534;18.700;2022-08-04T10:52:45;33.60;54.80
25512;DHT22;13414;44.534;18.700;2022-08-04T10:55:17;33.70;54.90
25512;DHT22;13414;44.534;18.700;2022-08-04T10:57:49;33.80;54.40
25512;DHT22;13414;44.534;18.700;2022-08-04T11:00:20;33.70;54.20
25512;DHT22;13414;44.534;18.700;2022-08-04T11:02:57;33.60;54.30
25512;DHT22;13414;44.534;18.700;2022-08-04T11:05:29;33.50;55.40
25512;DHT22;13414;44.534;18.700;2022-08-04T11:08:00;33.50;54.90
25512;DHT22;13414;44.534;18.700;2022-08-04T11:10:34;33.50;54.10
25512;DHT22;13414;44.534;18.700;2022-08-04T11:13:05;33.40;53.80
25512;DHT22;13414;44.534;18.700;2022-08-04T11:15:37;33.60;53.30
25512;DHT22;13414;44.534;18.700;2022-08-04T11:18:13;33.80;52.90
25512;DHT22;13414;44.534;18.700;2022-08-04T11:20:46;34.10;52.50
25512;DHT22;13414;44.534;18.700;2022-08-04T11:23:16;34.50;51.80
25512;DHT22;13414;44.534;18.700;2022-08-04T11:25:50;34.70;51.90
25512;DHT22;13414;44.534;18.700;2022-08-04T11:28:25;34.40;51.50
25512;DHT22;13414;44.534;18.700;2022-08-04T11:31:01;34.20;52.10
25512;DHT22;13414;44.534;18.700;2022-08-04T11:33:36;34.40;51.70
25512;DHT22;13414;44.534;18.700;2022-08-04T11:36:14;34.50;52.00
25512;DHT22;13414;44.534;18.700;2022-08-04T11:38:46;34.60;51.70
25512;DHT22;13414;44.534;18.700;2022-08-04T11:41:19;34.70;51.30
25512;DHT22;13414;44.534;18.700;2022-08-04T11:43:54;34.60;51.20
25512;DHT22;13414;44.534;18.700;2022-08-04T11:46:26;34.10;51.40
25512;DHT22;13414;44.534;18.700;2022-08-04T11:49:01;34.20;51.70
25512;DHT22;13414;44.534;18.700;2022-08-04T11:51:31;34.00;50.30
25512;DHT22;13414;44.534;18.700;2022-08-04T11:54:00;34.20;51.50
25512;DHT22;13414;44.534;18.700;2022-08-04T11:56:28;34.10;51.30
25512;DHT22;13414;44.534;18.700;2022-08-04T11:58:57;34.00;50.30
25512;DHT22;13414;44.534;18.700;2022-08-04T12:01:34;34.00;51.20
25512;DHT22;13414;44.534;18.700;2022-08-04T12:04:13;34.00;50.80
25512;DHT22;13414;44.534;18.700;2022-08-04T12:06:47;33.50;51.00
25512;DHT22;13414;44.534;18.700;2022-08-04T12:09:21;33.50;51.00
25512;DHT22;13414;44.534;18.700;2022-08-04T12:11:58;33.50;51.50
25512;DHT22;13414;44.534;18.700;2022-08-04T12:14:32;33.30;51.20
25512;DHT22;13414;44.534;18.700;2022-08-04T12:17:05;33.40;51.30
25512;DHT22;13414;44.534;18.700;2022-08-04T12:19:40;33.40;50.80
25512;DHT22;13414;44.534;18.700;2022-08-04T12:22:13;33.20;50.70
25512;DHT22;13414;44.534;18.700;2022-08-04T12:24:44;33.00;51.30
25512;DHT22;13414;44.534;18.700;2022-08-04T12:27:15;33.10;51.00
25512;DHT22;13414;44.534;18.700;2022-08-04T12:29:45;33.20;50.70
25512;DHT22;13414;44.534;18.700;2022-08-04T12:32:19;33.10;51.20
25512;DHT22;13414;44.534;18.700;2022-08-04T12:34:58;33.30;51.70
25512;DHT22;13414;44.534;18.700;2022-08-04T12:37:37;33.50;50.70
25512;DHT22;13414;44.534;18.700;2022-08-04T12:40:13;33.50;50.50
25512;DHT22;13414;44.534;18.700;2022-08-04T12:42:59;33.20;51.00
25512;DHT22;13414;44.534;18.700;2022-08-04T12:45:29;33.10;51.60
25512;DHT22;13414;44.534;18.700;2022-08-04T12:47:58;33.20;51.10
25512;DHT22;13414;44.534;18.700;2022-08-04T12:50:28;33.20;51.00
25512;DHT22;13414;44.534;18.700;2022-08-04T12:52:57;33.40;51.70
25512;DHT22;13414;44.534;18.700;2022-08-04T12:55:28;33.50;51.00
25512;DHT22;13414;44.534;18.700;2022-08-04T12:57:56;33.50;50.90
25512;DHT22;13414;44.534;18.700;2022-08-04T13:00:27;33.60;51.00
25512;DHT22;13414;44.534;18.700;2022-08-04T13:03:00;33.70;51.40
25512;DHT22;13414;44.534;18.700;2022-08-04T13:05:31;33.70;50.50
25512;DHT22;13414;44.534;18.700;2022-08-04T13:08:01;33.80;50.10
25512;DHT22;13414;44.534;18.700;2022-08-04T13:10:31;33.90;50.10
25512;DHT22;13414;44.534;18.700;2022-08-04T13:13:03;33.70;49.70
25512;DHT22;13414;44.534;18.700;2022-08-04T13:15:31;33.80;49.90
25512;DHT22;13414;44.534;18.700;2022-08-04T13:18:02;33.90;49.70
25512;DHT22;13414;44.534;18.700;2022-08-04T13:20:33;34.00;49.70
25512;DHT22;13414;44.534;18.700;2022-08-04T13:23:06;34.10;50.30
25512;DHT22;13414;44.534;18.700;2022-08-04T13:25:35;33.80;51.00
25512;DHT22;13414;44.534;18.700;2022-08-04T13:28:05;33.60;50.60
25512;DHT22;13414;44.534;18.700;2022-08-04T13:30:35;33.70;49.50
25512;DHT22;13414;44.534;18.700;2022-08-04T13:33:03;33.20;50.00
25512;DHT22;13414;44.534;18.700;2022-08-04T13:35:35;33.30;50.10
25512;DHT22;13414;44.534;18.700;2022-08-04T13:38:10;33.20;50.70
25512;DHT22;13414;44.534;18.700;2022-08-04T13:40:39;33.00;50.30
25512;DHT22;13414;44.534;18.700;2022-08-04T13:43:08;32.90;49.60
25512;DHT22;13414;44.534;18.700;2022-08-04T13:45:37;33.10;50.40
25512;DHT22;13414;44.534;18.700;2022-08-04T13:48:08;33.20;49.80
25512;DHT22;13414;44.534;18.700;2022-08-04T13:50:38;33.20;49.10
25512;DHT22;13414;44.534;18.700;2022-08-04T13:53:11;33.20;49.50
25512;DHT22;13414;44.534;18.700;2022-08-04T13:55:39;33.20;48.30
25512;DHT22;13414;44.534;18.700;2022-08-04T13:58:09;33.20;48.70
25512;DHT22;13414;44.534;18.700;2022-08-04T14:00:41;33.20;48.30
25512;DHT22;13414;44.534;18.700;2022-08-04T14:03:11;33.20;47.60
25512;DHT22;13414;44.534;18.700;2022-08-04T14:05:41;33.20;47.10
25512;DHT22;13414;44.534;18.700;2022-08-04T14:08:16;33.20;47.20
25512;DHT22;13414;44.534;18.700;2022-08-04T14:10:53;33.10;47.40
25512;DHT22;13414;44.534;18.700;2022-08-04T14:13:28;33.10;47.30
25512;DHT22;13414;44.534;18.700;2022-08-04T14:15:57;33.10;47.50
25512;DHT22;13414;44.534;18.700;2022-08-04T14:18:27;32.90;47.60
25512;DHT22;13414;44.534;18.700;2022-08-04T14:21:04;33.00;47.40
25512;DHT22;13414;44.534;18.700;2022-08-04T14:23:49;33.00;46.90
25512;DHT22;13414;44.534;18.700;2022-08-04T14:26:21;33.00;46.10
25512;DHT22;13414;44.534;18.700;2022-08-04T14:28:49;33.00;47.10
25512;DHT22;13414;44.534;18.700;2022-08-04T14:31:18;33.20;46.90
25512;DHT22;13414;44.534;18.700;2022-08-04T14:33:48;33.30;46.40
25512;DHT22;13414;44.534;18.700;2022-08-04T14:36:17;33.30;46.70
25512;DHT22;13414;44.534;18.700;2022-08-04T14:38:51;33.20;46.10
25512;DHT22;13414;44.534;18.700;2022-08-04T14:41:21;33.20;46.30
25512;DHT22;13414;44.534;18.700;2022-08-04T14:43:50;33.20;46.40
25512;DHT22;13414;44.534;18.700;2022-08-04T14:46:18;33.20;47.10
25512;DHT22;13414;44.534;18.700;2022-08-04T14:49:05;33.30;47.90
25512;DHT22;13414;44.534;18.700;2022-08-04T14:51:41;33.20;48.10
25512;DHT22;13414;44.534;18.700;2022-08-04T14:54:11;33.30;48.50
25512;DHT22;13414;44.534;18.700;2022-08-04T14:56:39;33.20;47.80
25512;DHT22;13414;44.534;18.700;2022-08-04T14:59:09;33.30;48.20
25512;DHT22;13414;44.534;18.700;2022-08-04T15:01:38;33.30;47.40
25512;DHT22;13414;44.534;18.700;2022-08-04T15:04:05;33.00;47.70
25512;DHT22;13414;44.534;18.700;2022-08-04T15:06:33;32.90;47.60
25512;DHT22;13414;44.534;18.700;2022-08-04T15:09:04;32.90;47.80
25512;DHT22;13414;44.534;18.700;2022-08-04T15:11:33;32.80;47.90
25512;DHT22;13414;44.534;18.700;2022-08-04T15:14:01;32.90;48.90
25512;DHT22;13414;44.534;18.700;2022-08-04T15:16:30;32.80;48.30
25512;DHT22;13414;44.534;18.700;2022-08-04T15:18:59;32.70;47.80
25512;DHT22;13414;44.534;18.700;2022-08-04T15:21:28;32.60;49.00
25512;DHT22;13414;44.534;18.700;2022-08-04T15:23:56;32.50;48.60
25512;DHT22;13414;44.534;18.700;2022-08-04T15:26:32;32.50;48.10
25512;DHT22;13414;44.534;18.700;2022-08-04T15:29:08;32.60;48.40
25512;DHT22;13414;44.534;18.700;2022-08-04T15:31:39;32.70;48.40
25512;DHT22;13414;44.534;18.700;2022-08-04T15:34:08;32.60;48.70
25512;DHT22;13414;44.534;18.700;2022-08-04T15:36:46;32.50;48.90
25512;DHT22;13414;44.534;18.700;2022-08-04T15:39:25;32.50;48.30
25512;DHT22;13414;44.534;18.700;2022-08-04T15:42:05;32.50;48.70
25512;DHT22;13414;44.534;18.700;2022-08-04T15:44:57;32.50;48.40
25512;DHT22;13414;44.534;18.700;2022-08-04T15:47:29;32.50;48.20
25512;DHT22;13414;44.534;18.700;2022-08-04T15:50:08;32.50;48.80
25512;DHT22;13414;44.534;18.700;2022-08-04T15:53:03;32.40;48.00
25512;DHT22;13414;44.534;18.700;2022-08-04T15:55:32;32.30;48.30
25512;DHT22;13414;44.534;18.700;2022-08-04T15:58:02;32.30;48.60
25512;DHT22;13414;44.534;18.700;2022-08-04T16:03:40;32.10;48.50
25512;DHT22;13414;44.534;18.700;2022-08-04T16:06:40;32.10;48.40
25512;DHT22;13414;44.534;18.700;2022-08-04T16:09:28;32.20;48.20
25512;DHT22;13414;44.534;18.700;2022-08-04T16:11:56;32.10;48.50
25512;DHT22;13414;44.534;18.700;2022-08-04T16:14:34;32.00;48.90
25512;DHT22;13414;44.534;18.700;2022-08-04T16:17:22;32.00;48.60
25512;DHT22;13414;44.534;18.700;2022-08-04T16:20:07;32.00;48.20
25512;DHT22;13414;44.534;18.700;2022-08-04T16:22:39;32.10;48.40
25512;DHT22;13414;44.534;18.700;2022-08-04T16:25:08;32.00;48.00
25512;DHT22;13414;44.534;18.700;2022-08-04T16:27:37;31.90;47.80
25512;DHT22;13414;44.534;18.700;2022-08-04T16:30:08;31.90;47.60
25512;DHT22;13414;44.534;18.700;2022-08-04T16:32:42;31.90;47.50
25512;DHT22;13414;44.534;18.700;2022-08-04T16:35:21;31.90;46.90
25512;DHT22;13414;44.534;18.700;2022-08-04T16:37:53;31.80;46.90
25512;DHT22;13414;44.534;18.700;2022-08-04T16:40:31;31.70;47.40
25512;DHT22;13414;44.534;18.700;2022-08-04T16:43:02;31.70;48.10